sensor_id;sensor_type;location;lat;lon;timestamp;pressure;altitude;pressure_sealevel;temperature;humidity
6668;BME280;3370;47.712;9.082;2024-01-30T00:00:59;98554.13;;;-0.40;100.00
6668;BME280;3370;47.712;9.082;2024-01-30T00:03:45;98559.47;;;-0.28;100.00
6668;BME280;3370;47.712;9.082;2024-01-30T00:06:31;98557.16;;;-0.55;100.00
6668;BME280;3370;47.712;9.082;2024-01-30T00:09:17;98558.06;;;-0.53;100.00
6668;BME280;3370;47.712;9.082;2024-01-30T00:12:04;98555.47;;;-0.54;100.00
6668;BME280;3370;47.712;9.082;2024-01-30T00:14:50;98554.88;;;-0.44;100.00
6668;BME280;3370;47.712;9.082;2024-01-30T00:17:37;98559.06;;;-0.46;100.00
6668;BME280;3370;47.712;9.082;2024-01-30T00:20:23;98553.34;;;-0.37;100.00
6668;BME280;3370;47.712;9.082;2024-01-30T00:23:09;98548.44;;;-0.31;100.00
6668;BME280;3370;47.712;9.082;2024-01-30T00:25:55;98553.88;;;-0.52;100.00
6668;BME280;3370;47.712;9.082;2024-01-30T00:28:42;98550.84;;;-0.37;100.00
6668;BME280;3370;47.712;9.082;2024-01-30T00:31:28;98559.13;;;-0.43;100.00
6668;BME280;3370;47.712;9.082;2024-01-30T00:34:14;98560.63;;;-0.51;100.00
6668;BME280;3370;47.712;9.082;2024-01-30T00:37:00;98561.34;;;-0.57;100.00
6668;BME280;3370;47.712;9.082;2024-01-30T00:39:46;98561.25;;;-0.60;100.00
6668;BME280;3370;47.712;9.082;2024-01-30T00:42:32;98559.13;;;-0.43;100.00
6668;BME280;3370;47.712;9.082;2024-01-30T00:45:18;98560.78;;;-0.45;100.00
6668;BME280;3370;47.712;9.082;2024-01-30T00:48:04;98563.56;;;-0.33;100.00
6668;BME280;3370;47.712;9.082;2024-01-30T00:50:51;98559.13;;;-0.43;100.00
6668;BME280;3370;47.712;9.082;2024-01-30T00:53:37;98564.09;;;-0.46;100.00
6668;BME280;3370;47.712;9.082;2024-01-30T00:56:23;98560.63;;;-0.51;100.00
6668;BME280;3370;47.712;9.082;2024-01-30T00:59:11;98565.88;;;-0.42;100.00
6668;BME280;3370;47.712;9.082;2024-01-30T01:01:57;98563.34;;;-0.42;100.00
6668;BME280;3370;47.712;9.082;2024-01-30T01:04:43;98566.50;;;-0.52;100.00
6668;BME280;3370;47.712;9.082;2024-01-30T01:07:30;98567.09;;;-0.63;100.00
6668;BME280;3370;47.712;9.082;2024-01-30T01:10:19;98572.16;;;-0.63;100.00
6668;BME280;3370;47.712;9.082;2024-01-30T01:13:05;98564.25;;;-0.40;100.00
6668;BME280;3370;47.712;9.082;2024-01-30T01:15:51;98569.16;;;-0.46;100.00
6668;BME280;3370;47.712;9.082;2024-01-30T01:18:37;98566.50;;;-0.51;100.00
6668;BME280;3370;47.712;9.082;2024-01-30T01:21:23;98568.94;;;-0.55;100.00
6668;BME280;3370;47.712;9.082;2024-01-30T01:24:09;98570.66;;;-0.54;100.00
6668;BME280;3370;47.712;9.082;2024-01-30T01:26:55;98567.72;;;-0.71;100.00
6668;BME280;3370;47.712;9.082;2024-01-30T01:29:43;98558.63;;;-0.65;100.00
6668;BME280;3370;47.712;9.082;2024-01-30T01:32:29;98563.84;;;-0.57;100.00
6668;BME280;3370;47.712;9.082;2024-01-30T01:35:15;98563.69;;;-0.65;100.00
6668;BME280;3370;47.712;9.082;2024-01-30T01:38:01;98565.59;;;-0.54;100.00
6668;BME280;3370;47.712;9.082;2024-01-30T01:40:48;98566.56;;;-0.49;100.00
6668;BME280;3370;47.712;9.082;2024-01-30T01:43:34;98567.19;;;-0.60;100.00
6668;BME280;3370;47.712;9.082;2024-01-30T01:46:20;98570.59;;;-0.57;100.00
6668;BME280;3370;47.712;9.082;2024-01-30T01:49:07;98572.03;;;-0.69;100.00
6668;BME280;3370;47.712;9.082;2024-01-30T01:51:55;98569.16;;;-0.83;100.00
6668;BME280;3370;47.712;9.082;2024-01-30T01:54:45;98563.47;;;-0.74;100.00
6668;BME280;3370;47.712;9.082;2024-01-30T01:57:31;98566.88;;;-0.72;100.00
6668;BME280;3370;47.712;9.082;2024-01-30T02:00:18;98565.25;;;-0.70;100.00
6668;BME280;3370;47.712;9.082;2024-01-30T02:03:06;98553.72;;;-0.59;100.00
6668;BME280;3370;47.712;9.082;2024-01-30T02:05:52;98563.00;;;-0.57;100.00
6668;BME280;3370;47.712;9.082;2024-01-30T02:08:38;98565.53;;;-0.57;100.00
6668;BME280;3370;47.712;9.082;2024-01-30T02:11:25;98563.53;;;-0.71;100.00
6668;BME280;3370;47.712;9.082;2024-01-30T02:14:11;98561.75;;;-0.75;100.00
6668;BME280;3370;47.712;9.082;2024-01-30T02:16:57;98563.47;;;-0.74;100.00
6668;BME280;3370;47.712;9.082;2024-01-30T02:19:43;98557.72;;;-0.68;100.00
6668;BME280;3370;47.712;9.082;2024-01-30T02:22:29;98553.41;;;-0.71;100.00
6668;BME280;3370;47.712;9.082;2024-01-30T02:25:15;98560.09;;;-0.73;100.00
6668;BME280;3370;47.712;9.082;2024-01-30T02:28:01;98560.97;;;-0.72;100.00
6668;BME280;3370;47.712;9.082;2024-01-30T02:30:47;98565.38;;;-0.64;100.00
6668;BME280;3370;47.712;9.082;2024-01-30T02:33:33;98565.31;;;-0.67;100.00
6668;BME280;3370;47.712;9.082;2024-01-30T02:36:20;98560.31;;;-0.64;100.00
6668;BME280;3370;47.712;9.082;2024-01-30T02:39:06;98566.09;;;-0.69;100.00
6668;BME280;3370;47.712;9.082;2024-01-30T02:41:52;98556.91;;;-0.66;100.00
6668;BME280;3370;47.712;9.082;2024-01-30T02:44:38;98554.34;;;-0.67;100.00
6668;BME280;3370;47.712;9.082;2024-01-30T02:47:24;98553.56;;;-0.65;100.00
6668;BME280;3370;47.712;9.082;2024-01-30T02:50:10;98558.69;;;-0.63;100.00
6668;BME280;3370;47.712;9.082;2024-01-30T02:52:56;98561.06;;;-0.68;100.00
6668;BME280;3370;47.712;9.082;2024-01-30T02:55:42;98553.38;;;-0.74;100.00
6668;BME280;3370;47.712;9.082;2024-01-30T02:58:28;98549.69;;;-0.85;100.00
6668;BME280;3370;47.712;9.082;2024-01-30T03:01:14;98553.81;;;-0.90;100.00
6668;BME280;3370;47.712;9.082;2024-01-30T03:04:00;98548.44;;;-0.68;100.00
6668;BME280;3370;47.712;9.082;2024-01-30T03:06:46;98555.44;;;-0.57;100.00
6668;BME280;3370;47.712;9.082;2024-01-30T03:09:33;98553.41;;;-0.71;100.00
6668;BME280;3370;47.712;9.082;2024-01-30T03:12:19;98547.78;;;-0.95;100.00
6668;BME280;3370;47.712;9.082;2024-01-30T03:15:05;98552.44;;;-0.78;100.00
6668;BME280;3370;47.712;9.082;2024-01-30T03:17:53;98548.16;;;-0.80;100.00
6668;BME280;3370;47.712;9.082;2024-01-30T03:20:39;98544.59;;;-0.88;100.00
6668;BME280;3370;47.712;9.082;2024-01-30T03:23:25;98549.56;;;-0.91;100.00
6668;BME280;3370;47.712;9.082;2024-01-30T03:26:12;98548.81;;;-0.87;100.00
6668;BME280;3370;47.712;9.082;2024-01-30T03:28:59;98548.75;;;-0.90;100.00
6668;BME280;3370;47.712;9.082;2024-01-30T03:31:45;98552.09;;;-0.91;100.00
6668;BME280;3370;47.712;9.082;2024-01-30T03:34:31;98553.78;;;-0.92;100.00
6668;BME280;3370;47.712;9.082;2024-01-30T03:37:17;98543.84;;;-0.84;100.00
6668;BME280;3370;47.712;9.082;2024-01-30T03:40:03;98548.84;;;-0.86;100.00
6668;BME280;3370;47.712;9.082;2024-01-30T03:42:49;98550.41;;;-0.91;100.00
6668;BME280;3370;47.712;9.082;2024-01-30T03:45:35;98549.88;;;-0.79;100.00
6668;BME280;3370;47.712;9.082;2024-01-30T03:48:21;98546.59;;;-0.75;100.00
6668;BME280;3370;47.712;9.082;2024-01-30T03:51:08;98538.22;;;-0.74;100.00
6668;BME280;3370;47.712;9.082;2024-01-30T03:53:54;98546.13;;;-0.59;100.00
6668;BME280;3370;47.712;9.082;2024-01-30T03:56:40;98540.06;;;-0.67;100.00
6668;BME280;3370;47.712;9.082;2024-01-30T03:59:26;98539.63;;;-0.84;100.00
6668;BME280;3370;47.712;9.082;2024-01-30T04:02:12;98545.41;;;-0.89;100.00
6668;BME280;3370;47.712;9.082;2024-01-30T04:04:58;98538.94;;;-0.78;100.00
6668;BME280;3370;47.712;9.082;2024-01-30T04:07:44;98536.69;;;-0.66;100.00
6668;BME280;3370;47.712;9.082;2024-01-30T04:10:30;98537.59;;;-0.64;100.00
6668;BME280;3370;47.712;9.082;2024-01-30T04:13:16;98545.38;;;-0.54;100.00
6668;BME280;3370;47.712;9.082;2024-01-30T04:16:03;98539.50;;;-0.53;100.00
6668;BME280;3370;47.712;9.082;2024-01-30T04:18:49;98541.88;;;-0.61;100.00
6668;BME280;3370;47.712;9.082;2024-01-30T04:21:35;98543.34;;;-0.69;100.00
6668;BME280;3370;47.712;9.082;2024-01-30T04:24:21;98537.66;;;-0.61;100.00
6668;BME280;3370;47.712;9.082;2024-01-30T04:27:07;98548.56;;;-0.63;100.00
6668;BME280;3370;47.712;9.082;2024-01-30T04:29:53;98537.66;;;-0.61;100.00
6668;BME280;3370;47.712;9.082;2024-01-30T04:32:40;98536.06;;;-0.57;100.00
6668;BME280;3370;47.712;9.082;2024-01-30T04:35:26;98535.22;;;-0.57;100.00
6668;BME280;3370;47.712;9.082;2024-01-30T04:38:12;98536.78;;;-0.63;100.00
6668;BME280;3370;47.712;9.082;2024-01-30T04:40:59;98532.84;;;-0.50;100.00
6668;BME280;3370;47.712;9.082;2024-01-30T04:43:45;98532.22;;;-0.78;100.00
6668;BME280;3370;47.712;9.082;2024-01-30T04:46:32;98528.22;;;-0.68;100.00
6668;BME280;3370;47.712;9.082;2024-01-30T04:49:20;98538.22;;;-0.74;100.00
6668;BME280;3370;47.712;9.082;2024-01-30T04:52:07;98537.78;;;-0.92;100.00
6668;BME280;3370;47.712;9.082;2024-01-30T04:54:54;98535.81;;;-1.03;100.00
6668;BME280;3370;47.712;9.082;2024-01-30T04:57:40;98539.25;;;-1.01;100.00
6668;BME280;3370;47.712;9.082;2024-01-30T05:00:26;98541.09;;;-0.93;100.00
6668;BME280;3370;47.712;9.082;2024-01-30T05:03:12;98542.97;;;-0.86;100.00
6668;BME280;3370;47.712;9.082;2024-01-30T05:05:58;98544.94;;;-0.73;100.00
6668;BME280;3370;47.712;9.082;2024-01-30T05:08:44;98539.22;;;-0.66;100.00
6668;BME280;3370;47.712;9.082;2024-01-30T05:11:30;98551.94;;;-0.63;100.00
6668;BME280;3370;47.712;9.082;2024-01-30T05:14:17;98550.22;;;-0.64;100.00
6668;BME280;3370;47.712;9.082;2024-01-30T05:17:03;98553.72;;;-0.59;100.00
6668;BME280;3370;47.712;9.082;2024-01-30T05:19:50;98550.88;;;-0.72;100.00
6668;BME280;3370;47.712;9.082;2024-01-30T05:22:36;98548.53;;;-0.65;100.00
6668;BME280;3370;47.712;9.082;2024-01-30T05:25:22;98565.25;;;-0.70;100.00
6668;BME280;3370;47.712;9.082;2024-01-30T05:28:09;98560.78;;;-0.80;100.00
6668;BME280;3370;47.712;9.082;2024-01-30T05:30:55;98562.53;;;-0.78;100.00
6668;BME280;3370;47.712;9.082;2024-01-30T05:33:41;98570.28;;;-0.70;100.00
6668;BME280;3370;47.712;9.082;2024-01-30T05:36:27;98556.09;;;-0.65;100.00
6668;BME280;3370;47.712;9.082;2024-01-30T05:39:13;98561.25;;;-0.62;100.00
6668;BME280;3370;47.712;9.082;2024-01-30T05:42:00;98559.38;;;-0.69;100.00
6668;BME280;3370;47.712;9.082;2024-01-30T05:44:46;98554.34;;;-0.69;100.00
6668;BME280;3370;47.712;9.082;2024-01-30T05:47:32;98562.03;;;-0.63;100.00
6668;BME280;3370;47.712;9.082;2024-01-30T05:50:19;98571.09;;;-0.72;100.00
6668;BME280;3370;47.712;9.082;2024-01-30T05:53:05;98570.16;;;-0.76;100.00
6668;BME280;3370;47.712;9.082;2024-01-30T05:55:51;98572.69;;;-0.76;100.00
6668;BME280;3370;47.712;9.082;2024-01-30T05:58:37;98563.06;;;-0.89;100.00
6668;BME280;3370;47.712;9.082;2024-01-30T06:01:23;98564.94;;;-0.82;100.00
6668;BME280;3370;47.712;9.082;2024-01-30T06:04:09;98570.06;;;-0.79;100.00
6668;BME280;3370;47.712;9.082;2024-01-30T06:06:55;98572.78;;;-0.71;100.00
6668;BME280;3370;47.712;9.082;2024-01-30T06:09:41;98572.47;;;-0.84;100.00
6668;BME280;3370;47.712;9.082;2024-01-30T06:12:28;98576.53;;;-0.90;100.00
6668;BME280;3370;47.712;9.082;2024-01-30T06:15:14;98573.56;;;-0.74;100.00
6668;BME280;3370;47.712;9.082;2024-01-30T06:18:00;98569.09;;;-0.84;100.00
6668;BME280;3370;47.712;9.082;2024-01-30T06:20:46;98574.28;;;-0.78;100.00
6668;BME280;3370;47.712;9.082;2024-01-30T06:23:32;98573.50;;;-0.77;100.00
6668;BME280;3370;47.712;9.082;2024-01-30T06:26:18;98574.97;;;-0.85;100.00
6668;BME280;3370;47.712;9.082;2024-01-30T06:29:05;98577.47;;;-0.85;100.00
6668;BME280;3370;47.712;9.082;2024-01-30T06:31:51;98560.59;;;-0.88;100.00
6668;BME280;3370;47.712;9.082;2024-01-30T06:34:37;98571.72;;;-0.81;100.00
6668;BME280;3370;47.712;9.082;2024-01-30T06:37:24;98569.84;;;-0.88;100.00
6668;BME280;3370;47.712;9.082;2024-01-30T06:40:11;98573.34;;;-0.83;100.00
6668;BME280;3370;47.712;9.082;2024-01-30T06:42:57;98571.34;;;-0.95;100.00
6668;BME280;3370;47.712;9.082;2024-01-30T06:45:43;98575.47;;;-0.99;100.00
6668;BME280;3370;47.712;9.082;2024-01-30T06:48:29;98574.72;;;-0.94;100.00
6668;BME280;3370;47.712;9.082;2024-01-30T06:51:15;98576.75;;;-0.81;100.00
6668;BME280;3370;47.712;9.082;2024-01-30T06:54:02;98580.75;;;-0.89;100.00
6668;BME280;3370;47.712;9.082;2024-01-30T06:56:48;98583.38;;;-0.86;100.00
6668;BME280;3370;47.712;9.082;2024-01-30T06:59:34;98582.66;;;-0.81;100.00
6668;BME280;3370;47.712;9.082;2024-01-30T07:02:20;98593.16;;;-0.64;100.00
6668;BME280;3370;47.712;9.082;2024-01-30T07:05:07;98590.47;;;-0.71;100.00
6668;BME280;3370;47.712;9.082;2024-01-30T07:07:53;98585.38;;;-0.73;100.00
6668;BME280;3370;47.712;9.082;2024-01-30T07:10:39;98591.03;;;-0.82;100.00
6668;BME280;3370;47.712;9.082;2024-01-30T07:13:25;98593.78;;;-0.74;100.00
6668;BME280;3370;47.712;9.082;2024-01-30T07:16:11;98599.94;;;-0.63;100.00
6668;BME280;3370;47.712;9.082;2024-01-30T07:18:57;98595.56;;;-0.70;100.00
6668;BME280;3370;47.712;9.082;2024-01-30T07:21:44;98597.09;;;-0.75;100.00
6668;BME280;3370;47.712;9.082;2024-01-30T07:24:30;98599.97;;;-0.61;100.00
6668;BME280;3370;47.712;9.082;2024-01-30T07:27:16;98597.50;;;-0.60;100.00
6668;BME280;3370;47.712;9.082;2024-01-30T07:30:04;98600.81;;;-0.61;100.00
6668;BME280;3370;47.712;9.082;2024-01-30T07:32:50;98596.44;;;-0.68;100.00
6668;BME280;3370;47.712;9.082;2024-01-30T07:35:36;98596.41;;;-0.69;100.00
6668;BME280;3370;47.712;9.082;2024-01-30T07:38:22;98593.84;;;-0.71;100.00
6668;BME280;3370;47.712;9.082;2024-01-30T07:41:08;98605.22;;;-0.53;100.00
6668;BME280;3370;47.712;9.082;2024-01-30T07:43:55;98604.28;;;-0.57;100.00
6668;BME280;3370;47.712;9.082;2024-01-30T07:46:41;98610.13;;;-0.58;100.00
6668;BME280;3370;47.712;9.082;2024-01-30T07:49:27;98608.53;;;-0.56;100.00
6668;BME280;3370;47.712;9.082;2024-01-30T07:52:13;98616.22;;;-0.51;100.00
6668;BME280;3370;47.712;9.082;2024-01-30T07:55:00;98621.03;;;-0.61;100.00
6668;BME280;3370;47.712;9.082;2024-01-30T07:57:46;98620.25;;;-0.58;100.00
6668;BME280;3370;47.712;9.082;2024-01-30T08:00:32;98617.75;;;-0.56;100.00
6668;BME280;3370;47.712;9.082;2024-01-30T08:03:18;98625.56;;;-0.49;100.00
6668;BME280;3370;47.712;9.082;2024-01-30T08:06:05;98627.50;;;-0.37;100.00
6668;BME280;3370;47.712;9.082;2024-01-30T08:08:52;98627.28;;;-0.46;100.00
6668;BME280;3370;47.712;9.082;2024-01-30T08:11:39;98632.34;;;-0.46;100.00
6668;BME280;3370;47.712;9.082;2024-01-30T08:14:25;98628.25;;;-0.41;100.00
6668;BME280;3370;47.712;9.082;2024-01-30T08:17:11;98627.50;;;-0.37;100.00
6668;BME280;3370;47.712;9.082;2024-01-30T08:19:58;98630.88;;;-0.36;100.00
6668;BME280;3370;47.712;9.082;2024-01-30T08:22:44;98621.47;;;-0.42;100.00
6668;BME280;3370;47.712;9.082;2024-01-30T08:25:30;98623.13;;;-0.44;100.00
6668;BME280;3370;47.712;9.082;2024-01-30T08:28:16;98625.50;;;-0.50;100.00
6668;BME280;3370;47.712;9.082;2024-01-30T08:31:02;98631.03;;;-0.30;100.00
6668;BME280;3370;47.712;9.082;2024-01-30T08:33:48;98630.31;;;-0.25;100.00
6668;BME280;3370;47.712;9.082;2024-01-30T08:36:34;98630.28;;;-0.26;100.00
6668;BME280;3370;47.712;9.082;2024-01-30T08:39:20;98624.50;;;-0.21;100.00
6668;BME280;3370;47.712;9.082;2024-01-30T08:42:06;98622.94;;;-0.15;100.00
6668;BME280;3370;47.712;9.082;2024-01-30T08:44:53;98630.47;;;-0.18;100.00
6668;BME280;3370;47.712;9.082;2024-01-30T08:47:40;98627.97;;;-0.17;100.00
6668;BME280;3370;47.712;9.082;2024-01-30T08:50:26;98629.69;;;-0.16;100.00
6668;BME280;3370;47.712;9.082;2024-01-30T08:53:13;98639.22;;;-0.04;100.00
6668;BME280;3370;47.712;9.082;2024-01-30T08:55:59;98636.84;;;0.04;100.00
6668;BME280;3370;47.712;9.082;2024-01-30T08:58:45;98639.84;;;-0.13;100.00
6668;BME280;3370;47.712;9.082;2024-01-30T09:01:31;98635.59;;;-0.15;100.00
6668;BME280;3370;47.712;9.082;2024-01-30T09:04:17;98642.38;;;-0.14;100.00
6668;BME280;3370;47.712;9.082;2024-01-30T09:07:03;98638.16;;;-0.14;100.00
6668;BME280;3370;47.712;9.082;2024-01-30T09:09:51;98640.94;;;-0.03;100.00
6668;BME280;3370;47.712;9.082;2024-01-30T09:12:37;98644.75;;;0.17;100.00
6668;BME280;3370;47.712;9.082;2024-01-30T09:15:23;98644.34;;;-0.01;100.00
6668;BME280;3370;47.712;9.082;2024-01-30T09:18:10;98650.56;;;-0.25;100.00
6668;BME280;3370;47.712;9.082;2024-01-30T09:20:56;98645.69;;;-0.15;100.00
6668;BME280;3370;47.712;9.082;2024-01-30T09:23:42;98652.00;;;0.02;100.00
6668;BME280;3370;47.712;9.082;2024-01-30T09:26:28;98655.81;;;-0.15;100.00
6668;BME280;3370;47.712;9.082;2024-01-30T09:29:14;98650.09;;;-0.08;100.00
6668;BME280;3370;47.712;9.082;2024-01-30T09:32:00;98646.00;;;-0.03;100.00
6668;BME280;3370;47.712;9.082;2024-01-30T09:34:46;98654.97;;;-0.16;100.00
6668;BME280;3370;47.712;9.082;2024-01-30T09:37:32;98650.91;;;-0.44;100.00
6668;BME280;3370;47.712;9.082;2024-01-30T09:40:19;98646.78;;;-0.41;100.00
6668;BME280;3370;47.712;9.082;2024-01-30T09:43:06;98651.09;;;-0.36;100.00
6668;BME280;3370;47.712;9.082;2024-01-30T09:45:53;98661.28;;;-0.33;100.00
6668;BME280;3370;47.712;9.082;2024-01-30T09:48:46;98654.38;;;-0.41;100.00
6668;BME280;3370;47.712;9.082;2024-01-30T09:51:34;98657.31;;;-0.24;100.00
6668;BME280;3370;47.712;9.082;2024-01-30T09:54:21;98658.72;;;0.02;100.00
6668;BME280;3370;47.712;9.082;2024-01-30T09:57:07;98658.72;;;0.02;100.00
6668;BME280;3370;47.712;9.082;2024-01-30T09:59:54;98656.53;;;0.15;100.00
6668;BME280;3370;47.712;9.082;2024-01-30T10:02:40;98662.25;;;0.08;100.00
6668;BME280;3370;47.712;9.082;2024-01-30T10:05:27;98662.84;;;-0.02;100.00
6668;BME280;3370;47.712;9.082;2024-01-30T10:08:17;98657.88;;;0.01;100.00
6668;BME280;3370;47.712;9.082;2024-01-30T10:11:05;98651.69;;;-0.12;100.00
6668;BME280;3370;47.712;9.082;2024-01-30T10:13:51;98653.63;;;-0.02;100.00
6668;BME280;3370;47.712;9.082;2024-01-30T10:16:37;98652.75;;;-0.02;100.00
6668;BME280;3370;47.712;9.082;2024-01-30T10:19:23;98655.56;;;0.10;100.00
6668;BME280;3370;47.712;9.082;2024-01-30T10:22:09;98660.88;;;0.23;100.00
6668;BME280;3370;47.712;9.082;2024-01-30T10:24:56;98656.91;;;0.34;100.00
6668;BME280;3370;47.712;9.082;2024-01-30T10:27:42;98653.84;;;0.47;100.00
6668;BME280;3370;47.712;9.082;2024-01-30T10:30:28;98646.97;;;0.43;100.00
6668;BME280;3370;47.712;9.082;2024-01-30T10:33:14;98641.19;;;0.47;100.00
6668;BME280;3370;47.712;9.082;2024-01-30T10:36:03;98653.56;;;0.35;100.00
6668;BME280;3370;47.712;9.082;2024-01-30T10:38:51;98646.53;;;0.22;100.00
6668;BME280;3370;47.712;9.082;2024-01-30T10:41:43;98651.56;;;0.22;100.00
6668;BME280;3370;47.712;9.082;2024-01-30T10:47:54;98640.78;;;0.29;100.00
6668;BME280;3370;47.712;9.082;2024-01-30T10:50:42;98631.69;;;0.37;100.00
6668;BME280;3370;47.712;9.082;2024-01-30T10:53:30;98633.13;;;0.26;100.00
6668;BME280;3370;47.712;9.082;2024-01-30T10:56:17;98625.41;;;0.19;100.00
6668;BME280;3370;47.712;9.082;2024-01-30T10:59:04;98624.72;;;0.27;100.00
6668;BME280;3370;47.712;9.082;2024-01-30T11:01:50;98625.19;;;0.50;100.00
6668;BME280;3370;47.712;9.082;2024-01-30T11:04:38;98627.00;;;0.55;100.00
6668;BME280;3370;47.712;9.082;2024-01-30T11:07:26;98619.31;;;0.52;100.00
6668;BME280;3370;47.712;9.082;2024-01-30T11:10:13;98621.00;;;0.52;100.00
6668;BME280;3370;47.712;9.082;2024-01-30T11:13:10;98618.59;;;0.56;100.00
6668;BME280;3370;47.712;9.082;2024-01-30T11:16:09;98619.66;;;0.68;100.00
6668;BME280;3370;47.712;9.082;2024-01-30T11:19:00;98614.84;;;0.83;100.00
6668;BME280;3370;47.712;9.082;2024-01-30T11:21:51;98614.03;;;0.84;100.00
6668;BME280;3370;47.712;9.082;2024-01-30T11:24:41;98609.94;;;0.89;100.00
6668;BME280;3370;47.712;9.082;2024-01-30T11:27:28;98613.47;;;0.99;100.00
6668;BME280;3370;47.712;9.082;2024-01-30T11:30:28;98611.88;;;1.04;100.00
6668;BME280;3370;47.712;9.082;2024-01-30T11:33:15;98610.50;;;1.23;100.00
6668;BME280;3370;47.712;9.082;2024-01-30T11:36:02;98600.56;;;1.36;100.00
6668;BME280;3370;47.712;9.082;2024-01-30T11:38:48;98599.78;;;1.38;100.00
6668;BME280;3370;47.712;9.082;2024-01-30T11:41:37;98589.78;;;1.46;100.00
6668;BME280;3370;47.712;9.082;2024-01-30T11:44:24;98585.78;;;1.60;100.00
6668;BME280;3370;47.712;9.082;2024-01-30T11:47:10;98579.97;;;1.67;100.00
6668;BME280;3370;47.712;9.082;2024-01-30T11:49:57;98578.50;;;1.85;100.00
6668;BME280;3370;47.712;9.082;2024-01-30T11:52:43;98572.50;;;1.78;100.00
6668;BME280;3370;47.712;9.082;2024-01-30T11:55:30;98571.38;;;1.59;100.00
6668;BME280;3370;47.712;9.082;2024-01-30T11:58:16;98567.03;;;1.52;100.00
6668;BME280;3370;47.712;9.082;2024-01-30T12:01:03;98568.03;;;1.60;100.00
6668;BME280;3370;47.712;9.082;2024-01-30T12:03:50;98572.38;;;1.69;100.00
6668;BME280;3370;47.712;9.082;2024-01-30T12:06:36;98566.66;;;1.84;100.00
6668;BME280;3370;47.712;9.082;2024-01-30T12:09:22;98572.75;;;1.97;100.00
6668;BME280;3370;47.712;9.082;2024-01-30T12:12:08;98567.88;;;2.10;100.00
6668;BME280;3370;47.712;9.082;2024-01-30T12:14:57;98560.50;;;2.29;100.00
6668;BME280;3370;47.712;9.082;2024-01-30T12:17:43;98565.41;;;2.17;100.00
6668;BME280;3370;47.712;9.082;2024-01-30T12:20:29;98565.38;;;2.14;100.00
6668;BME280;3370;47.712;9.082;2024-01-30T12:23:16;98557.53;;;1.95;100.00
6668;BME280;3370;47.712;9.082;2024-01-30T12:26:03;98550.81;;;2.00;100.00
6668;BME280;3370;47.712;9.082;2024-01-30T12:28:56;98550.97;;;2.11;100.00
6668;BME280;3370;47.712;9.082;2024-01-30T12:31:44;98555.94;;;2.03;100.00
6668;BME280;3370;47.712;9.082;2024-01-30T12:34:30;98546.66;;;2.04;100.00
6668;BME280;3370;47.712;9.082;2024-01-30T12:37:16;98552.56;;;2.04;100.00
6668;BME280;3370;47.712;9.082;2024-01-30T12:40:09;98548.88;;;1.82;100.00
6668;BME280;3370;47.712;9.082;2024-01-30T12:42:55;98548.06;;;1.85;100.00
6668;BME280;3370;47.712;9.082;2024-01-30T12:45:42;98550.41;;;1.69;100.00
6668;BME280;3370;47.712;9.082;2024-01-30T12:48:28;98547.75;;;1.62;100.00
6668;BME280;3370;47.712;9.082;2024-01-30T12:51:15;98546.16;;;1.67;100.00
6668;BME280;3370;47.712;9.082;2024-01-30T12:54:06;98545.19;;;1.60;100.00
6668;BME280;3370;47.712;9.082;2024-01-30T12:56:52;98545.25;;;1.65;100.00
6668;BME280;3370;47.712;9.082;2024-01-30T12:59:38;98547.84;;;1.68;100.00
6668;BME280;3370;47.712;9.082;2024-01-30T13:02:25;98536.19;;;1.81;100.00
6668;BME280;3370;47.712;9.082;2024-01-30T13:05:12;98530.97;;;1.71;100.00
6668;BME280;3370;47.712;9.082;2024-01-30T13:07:58;98529.41;;;1.81;100.00
6668;BME280;3370;47.712;9.082;2024-01-30T13:10:44;98539.91;;;2.06;100.00
6668;BME280;3370;47.712;9.082;2024-01-30T13:13:30;98534.41;;;2.42;100.00
6668;BME280;3370;47.712;9.082;2024-01-30T13:16:16;98527.13;;;2.73;100.00
6668;BME280;3370;47.712;9.082;2024-01-30T13:19:03;98528.84;;;2.74;100.00
6668;BME280;3370;47.712;9.082;2024-01-30T13:21:49;98538.06;;;2.66;100.00
6668;BME280;3370;47.712;9.082;2024-01-30T13:24:35;98538.91;;;2.65;100.00
6668;BME280;3370;47.712;9.082;2024-01-30T13:27:21;98529.72;;;2.81;100.00
6668;BME280;3370;47.712;9.082;2024-01-30T13:30:08;98531.84;;;3.31;100.00
6668;BME280;3370;47.712;9.082;2024-01-30T13:32:57;98531.13;;;3.43;100.00
6668;BME280;3370;47.712;9.082;2024-01-30T13:35:43;98527.84;;;3.65;100.00
6668;BME280;3370;47.712;9.082;2024-01-30T13:38:29;98528.09;;;4.09;100.00
6668;BME280;3370;47.712;9.082;2024-01-30T13:41:15;98527.41;;;4.48;100.00
6668;BME280;3370;47.712;9.082;2024-01-30T13:44:02;98525.75;;;4.69;100.00
6668;BME280;3370;47.712;9.082;2024-01-30T13:46:49;98521.56;;;5.08;100.00
6668;BME280;3370;47.712;9.082;2024-01-30T13:49:35;98533.47;;;5.32;100.00
6668;BME280;3370;47.712;9.082;2024-01-30T13:52:21;98523.25;;;5.29;98.85
6668;BME280;3370;47.712;9.082;2024-01-30T13:55:07;98527.50;;;5.39;100.00
6668;BME280;3370;47.712;9.082;2024-01-30T13:57:53;98528.31;;;5.60;98.69
6668;BME280;3370;47.712;9.082;2024-01-30T14:00:39;98529.97;;;5.98;94.92
6668;BME280;3370;47.712;9.082;2024-01-30T14:03:25;98523.09;;;6.18;94.49
6668;BME280;3370;47.712;9.082;2024-01-30T14:06:12;98523.88;;;6.39;92.93
6668;BME280;3370;47.712;9.082;2024-01-30T14:08:58;98519.56;;;6.55;92.23
6668;BME280;3370;47.712;9.082;2024-01-30T14:11:44;98519.50;;;6.59;91.83
6668;BME280;3370;47.712;9.082;2024-01-30T14:14:30;98517.09;;;6.30;92.51
6668;BME280;3370;47.712;9.082;2024-01-30T14:17:16;98519.66;;;6.31;95.51
6668;BME280;3370;47.712;9.082;2024-01-30T14:20:06;98516.59;;;7.13;90.83
6668;BME280;3370;47.712;9.082;2024-01-30T14:22:52;98515.03;;;7.90;86.36
6668;BME280;3370;47.712;9.082;2024-01-30T14:25:41;98527.91;;;8.59;82.88
6668;BME280;3370;47.712;9.082;2024-01-30T14:28:27;98532.91;;;8.69;79.28
6668;BME280;3370;47.712;9.082;2024-01-30T14:31:13;98518.88;;;8.94;77.72
6668;BME280;3370;47.712;9.082;2024-01-30T14:33:59;98524.03;;;8.91;78.40
6668;BME280;3370;47.712;9.082;2024-01-30T14:36:46;98515.56;;;8.85;79.11
6668;BME280;3370;47.712;9.082;2024-01-30T14:39:32;98522.13;;;8.43;80.27
6668;BME280;3370;47.712;9.082;2024-01-30T14:42:19;98525.03;;;8.14;81.20
6668;BME280;3370;47.712;9.082;2024-01-30T14:45:06;98517.16;;;7.47;84.62
6668;BME280;3370;47.712;9.082;2024-01-30T14:47:53;98511.56;;;7.05;86.88
6668;BME280;3370;47.712;9.082;2024-01-30T14:50:41;98522.75;;;6.86;84.98
6668;BME280;3370;47.712;9.082;2024-01-30T14:53:27;98530.72;;;6.33;86.57
6668;BME280;3370;47.712;9.082;2024-01-30T14:56:13;98524.03;;;5.89;87.31
6668;BME280;3370;47.712;9.082;2024-01-30T14:59:00;98530.88;;;5.47;91.09
6668;BME280;3370;47.712;9.082;2024-01-30T15:01:47;98534.31;;;5.15;93.40